Time;durP1;ratioP1;P1;durP2;ratioP2;P2;SDS_P1;SDS_P2;PMS_P1;PMS_P2;Temp;Humidity;BMP_temperature;BMP_pressure;BME280_temperature;BME280_humidity;BME280_pressure;Samples;Min_cycle;Max_cycle;Signal;HPM_P1;HPM_P2
2022/04/22 00:01:25;;;;;;;;;;;10.30;99.90;;;;;;5028863;28;19951;-82
2022/04/22 00:03:51;;;;;;;;;;;10.20;99.90;;;;;;5033268;28;19932;-82
2022/04/22 00:06:18;;;;;;;;;;;10.20;99.90;;;;;;5044207;28;19924;-82
2022/04/22 00:08:44;;;;;;;;;;;10.20;99.90;;;;;;5018927;28;19936;-83
2022/04/22 00:13:58;;;;;;;;;;;10.10;99.90;;;;;;5046684;28;19924;-82
2022/04/22 00:16:25;;;;;;;;;;;10.00;99.90;;;;;;5028740;28;19929;-81
2022/04/22 00:18:51;;;;;;;;;;;10.00;99.90;;;;;;5036185;28;19925;-82
2022/04/22 00:21:18;;;;;;;;;;;10.00;99.90;;;;;;5045336;28;20352;-82
2022/04/22 00:23:44;;;;;;;;;;;9.90;99.90;;;;;;5046597;28;19932;-82
2022/04/22 00:26:11;;;;;;;;;;;9.80;99.90;;;;;;5030411;28;19955;-81
2022/04/22 00:28:38;;;;;;;;;;;9.80;99.90;;;;;;5039265;28;19982;-82
2022/04/22 00:31:04;;;;;;;;;;;9.80;99.90;;;;;;5041068;28;19928;-82
2022/04/22 00:33:31;;;;;;;;;;;9.70;99.90;;;;;;5019660;28;20407;-82
2022/04/22 00:35:57;;;;;;;;;;;9.70;99.90;;;;;;5035248;28;20380;-82
2022/04/22 00:38:24;;;;;;;;;;;9.80;99.90;;;;;;5051109;28;20360;-81
2022/04/22 00:40:52;;;;;;;;;;;9.70;99.90;;;;;;5029469;28;19929;-86
2022/04/22 00:43:19;;;;;;;;;;;9.70;99.90;;;;;;5027607;28;19948;-82
2022/04/22 00:45:45;;;;;;;;;;;9.70;99.90;;;;;;5044231;28;20388;-82
2022/04/22 00:48:12;;;;;;;;;;;9.60;99.90;;;;;;5048331;28;20352;-81
2022/04/22 00:50:38;;;;;;;;;;;9.60;99.90;;;;;;5063351;28;19932;-82
2022/04/22 00:53:05;;;;;;;;;;;9.70;99.90;;;;;;5042923;28;19936;-82
2022/04/22 00:55:32;;;;;;;;;;;9.60;99.90;;;;;;5030305;28;19933;-82
2022/04/22 00:57:58;;;;;;;;;;;9.50;99.90;;;;;;5026286;28;19970;-81
2022/04/22 01:00:25;;;;;;;;;;;9.50;99.90;;;;;;5047799;28;19935;-82
2022/04/22 01:02:51;;;;;;;;;;;9.50;99.90;;;;;;5031975;28;19931;-86
2022/04/22 01:11:01;;;;;;;;;;;9.30;99.90;;;;;;4978130;28;19925;-82
2022/04/22 01:13:27;;;;;;;;;;;9.40;99.90;;;;;;4975278;28;19968;-82
2022/04/22 01:15:54;;;;;;;;;;;9.40;99.90;;;;;;4991807;28;19929;-83
2022/04/22 01:18:21;;;;;;;;;;;9.30;99.90;;;;;;5032907;28;19928;-82
2022/04/22 01:20:47;;;;;;;;;;;9.30;99.90;;;;;;5020138;28;19966;-82
2022/04/22 01:23:14;;;;;;;;;;;9.30;99.90;;;;;;5038338;28;19928;-82
2022/04/22 01:25:40;;;;;;;;;;;9.30;99.90;;;;;;5053758;28;19929;-81
2022/04/22 01:28:07;;;;;;;;;;;9.30;99.90;;;;;;5039281;28;19931;-82
2022/04/22 01:30:34;;;;;;;;;;;9.20;99.90;;;;;;5027407;28;19932;-81
2022/04/22 01:33:01;;;;;;;;;;;9.20;99.90;;;;;;5047860;28;19990;-81
2022/04/22 01:35:27;;;;;;;;;;;9.30;99.90;;;;;;5049469;28;20291;-82
2022/04/22 01:37:54;;;;;;;;;;;9.20;99.90;;;;;;5040317;28;19925;-85
2022/04/22 01:40:21;;;;;;;;;;;9.20;99.90;;;;;;5025792;28;20377;-80
2022/04/22 01:42:47;;;;;;;;;;;9.20;99.90;;;;;;5047269;28;19924;-82
2022/04/22 01:45:14;;;;;;;;;;;9.20;99.90;;;;;;5029045;28;19925;-81
2022/04/22 01:47:40;;;;;;;;;;;9.10;99.90;;;;;;5023501;28;19929;-84
2022/04/22 01:50:07;;;;;;;;;;;9.10;99.90;;;;;;5029547;28;19931;-82
2022/04/22 01:52:34;;;;;;;;;;;9.10;99.90;;;;;;5031561;28;19964;-82
2022/04/22 01:55:00;;;;;;;;;;;9.00;99.90;;;;;;5046266;28;19925;-83
2022/04/22 01:57:27;;;;;;;;;;;8.90;99.90;;;;;;5038014;28;19932;-81
2022/04/22 01:59:55;;;;;;;;;;;8.80;99.90;;;;;;5027901;28;20253;-81
2022/04/22 02:02:21;;;;;;;;;;;8.80;99.90;;;;;;5051482;28;19925;-80
2022/04/22 02:04:48;;;;;;;;;;;8.60;99.90;;;;;;5034418;28;19924;-81
2022/04/22 02:07:15;;;;;;;;;;;8.60;99.90;;;;;;5047324;28;20014;-81
2022/04/22 02:09:41;;;;;;;;;;;8.60;99.90;;;;;;5043108;28;19925;-81
2022/04/22 02:12:08;;;;;;;;;;;8.50;99.90;;;;;;5027801;28;19925;-82
2022/04/22 02:14:34;;;;;;;;;;;8.60;99.90;;;;;;5063072;28;20379;-81
2022/04/22 02:17:01;;;;;;;;;;;8.60;99.90;;;;;;5068743;28;19924;-82
2022/04/22 02:19:27;;;;;;;;;;;8.60;99.90;;;;;;5038172;28;20366;-81
2022/04/22 02:21:54;;;;;;;;;;;8.50;99.90;;;;;;5056311;28;19925;-83
2022/04/22 02:24:21;;;;;;;;;;;8.40;99.90;;;;;;5043410;28;20068;-81
2022/04/22 02:29:31;;;;;;;;;;;8.40;99.90;;;;;;5025211;28;19924;-84
2022/04/22 02:31:58;;;;;;;;;;;8.40;99.90;;;;;;5025217;28;20250;-87
2022/04/22 02:34:24;;;;;;;;;;;8.40;99.90;;;;;;5054917;28;19931;-82
2022/04/22 02:36:51;;;;;;;;;;;8.30;99.90;;;;;;5044102;28;19932;-82
2022/04/22 02:39:17;;;;;;;;;;;8.30;99.90;;;;;;5048161;28;19947;-82
2022/04/22 02:47:13;;;;;;;;;;;8.20;99.90;;;;;;5049296;28;19925;-82
2022/04/22 02:49:43;;;;;;;;;;;8.20;99.90;;;;;;5028796;28;19951;-79
2022/04/22 02:52:09;;;;;;;;;;;8.20;99.90;;;;;;5049384;28;19968;-82
2022/04/22 02:54:36;;;;;;;;;;;8.10;99.90;;;;;;5046784;28;19936;-82
2022/04/22 02:57:02;;;;;;;;;;;8.10;99.90;;;;;;5043334;28;19925;-86
2022/04/22 02:59:29;;;;;;;;;;;8.20;99.90;;;;;;5040291;28;20329;-82
2022/04/22 03:01:55;;;;;;;;;;;8.10;99.90;;;;;;5057019;28;19932;-82
2022/04/22 03:04:22;;;;;;;;;;;8.10;99.90;;;;;;5026168;28;19921;-82
2022/04/22 03:06:48;;;;;;;;;;;8.00;99.90;;;;;;5024148;28;19975;-82
2022/04/22 03:09:15;;;;;;;;;;;8.00;99.90;;;;;;5042085;28;19925;-82
2022/04/22 03:11:42;;;;;;;;;;;8.00;99.90;;;;;;5037177;28;19925;-82
2022/04/22 03:14:08;;;;;;;;;;;7.90;99.90;;;;;;5034711;28;19925;-82
2022/04/22 03:16:35;;;;;;;;;;;8.00;99.90;;;;;;5049448;28;20384;-83
2022/04/22 03:19:01;;;;;;;;;;;7.90;99.90;;;;;;5034171;28;19925;-84
2022/04/22 03:21:28;;;;;;;;;;;7.90;99.90;;;;;;5030099;28;19924;-82
2022/04/22 03:23:56;;;;;;;;;;;7.80;99.90;;;;;;5040249;28;20007;-82
2022/04/22 03:26:22;;;;;;;;;;;7.90;99.90;;;;;;5041206;28;20015;-82
2022/04/22 03:28:49;;;;;;;;;;;7.90;99.90;;;;;;5038702;28;19928;-80
2022/04/22 03:31:15;;;;;;;;;;;7.90;99.90;;;;;;5045359;28;19925;-82
2022/04/22 03:33:42;;;;;;;;;;;7.90;99.90;;;;;;5029917;28;19925;-82
2022/04/22 03:36:08;;;;;;;;;;;7.70;99.90;;;;;;5041811;28;19948;-83
2022/04/22 03:38:35;;;;;;;;;;;7.80;99.90;;;;;;5025954;28;19925;-83
2022/04/22 03:41:02;;;;;;;;;;;7.80;99.90;;;;;;5059821;28;19947;-82
2022/04/22 03:43:28;;;;;;;;;;;7.80;99.90;;;;;;5056971;28;19930;-82
2022/04/22 03:45:55;;;;;;;;;;;7.60;99.90;;;;;;5051264;28;19948;-82
2022/04/22 03:48:21;;;;;;;;;;;7.60;99.90;;;;;;5064384;28;20287;-81
2022/04/22 03:50:48;;;;;;;;;;;7.40;99.90;;;;;;5046273;28;19925;-82
2022/04/22 03:53:15;;;;;;;;;;;7.30;99.90;;;;;;5052484;28;20268;-81
2022/04/22 03:55:41;;;;;;;;;;;7.20;99.90;;;;;;5038581;28;20272;-82
2022/04/22 03:58:10;;;;;;;;;;;7.20;99.90;;;;;;5036308;28;19931;-83
2022/04/22 04:00:39;;;;;;;;;;;7.20;99.90;;;;;;5043461;28;19975;-83
2022/04/22 04:03:06;;;;;;;;;;;7.20;99.90;;;;;;5043738;28;20395;-85
2022/04/22 04:05:33;;;;;;;;;;;7.20;99.90;;;;;;5041828;28;19931;-82
2022/04/22 04:07:59;;;;;;;;;;;7.20;99.90;;;;;;5049465;28;19973;-82
2022/04/22 04:16:00;;;;;;;;;;;7.10;99.90;;;;;;5038106;28;19928;-82
2022/04/22 04:18:27;;;;;;;;;;;7.00;99.90;;;;;;5024727;28;20081;-81
2022/04/22 04:23:38;;;;;;;;;;;7.10;99.90;;;;;;5036421;28;19925;-82
2022/04/22 04:26:04;;;;;;;;;;;7.10;99.90;;;;;;5049415;28;20027;-81
2022/04/22 04:28:33;;;;;;;;;;;7.20;99.90;;;;;;5032351;28;20046;-82
2022/04/22 04:30:59;;;;;;;;;;;7.20;99.90;;;;;;5025954;28;19925;-81
2022/04/22 04:33:26;;;;;;;;;;;7.20;99.90;;;;;;5035555;28;19968;-82
2022/04/22 04:35:53;;;;;;;;;;;7.40;99.90;;;;;;5042139;28;19929;-82
2022/04/22 04:38:20;;;;;;;;;;;7.70;99.90;;;;;;5042962;28;19932;-80
2022/04/22 04:40:46;;;;;;;;;;;7.60;99.90;;;;;;5059816;28;19924;-82
2022/04/22 04:43:13;;;;;;;;;;;7.90;99.90;;;;;;5042017;28;19932;-82
2022/04/22 04:45:39;;;;;;;;;;;8.00;99.90;;;;;;5030108;28;20261;-82
2022/04/22 04:48:06;;;;;;;;;;;7.70;99.90;;;;;;5035876;28;20369;-84
2022/04/22 04:50:33;;;;;;;;;;;7.70;99.90;;;;;;5046168;28;19964;-82
2022/04/22 04:52:59;;;;;;;;;;;7.70;99.90;;;;;;5048200;28;19932;-82
2022/04/22 04:55:26;;;;;;;;;;;7.60;99.90;;;;;;5034110;28;20289;-82
2022/04/22 04:57:52;;;;;;;;;;;7.60;99.90;;;;;;5039061;28;19948;-82
2022/04/22 05:00:19;;;;;;;;;;;7.70;99.90;;;;;;5050902;28;19931;-82
2022/04/22 05:02:45;;;;;;;;;;;7.60;99.90;;;;;;5041031;28;20365;-82
2022/04/22 05:05:12;;;;;;;;;;;7.60;99.90;;;;;;5038975;28;19932;-86
2022/04/22 05:07:38;;;;;;;;;;;7.70;99.90;;;;;;5060469;28;19978;-82
2022/04/22 05:10:05;;;;;;;;;;;7.80;99.90;;;;;;5038320;28;19941;-81
2022/04/22 05:12:32;;;;;;;;;;;7.70;99.90;;;;;;5064756;28;19921;-82
2022/04/22 05:14:58;;;;;;;;;;;7.80;99.90;;;;;;5024357;28;20306;-82
2022/04/22 05:17:25;;;;;;;;;;;7.90;99.90;;;;;;5025392;28;19947;-82
2022/04/22 05:19:52;;;;;;;;;;;7.90;99.90;;;;;;5061344;28;20406;-81
2022/04/22 05:22:18;;;;;;;;;;;7.90;99.90;;;;;;5034524;28;19932;-82
2022/04/22 05:24:45;;;;;;;;;;;8.10;99.90;;;;;;5020870;28;19940;-82
2022/04/22 05:27:11;;;;;;;;;;;8.10;99.90;;;;;;5016455;28;19929;-86
2022/04/22 05:32:37;;;;;;;;;;;8.50;99.90;;;;;;5045163;28;19946;-82
2022/04/22 05:35:04;;;;;;;;;;;8.40;99.90;;;;;;5045617;28;20295;-81
2022/04/22 05:37:30;;;;;;;;;;;8.60;99.90;;;;;;5046016;28;20007;-81
2022/04/22 05:39:57;;;;;;;;;;;8.60;99.90;;;;;;5045644;28;20451;-81
2022/04/22 05:42:23;;;;;;;;;;;8.60;99.90;;;;;;5045589;28;19925;-83
2022/04/22 05:44:50;;;;;;;;;;;8.70;99.90;;;;;;5028176;28;19924;-83
2022/04/22 05:47:17;;;;;;;;;;;8.70;99.90;;;;;;5027449;28;19924;-83
2022/04/22 05:49:43;;;;;;;;;;;8.90;99.90;;;;;;5028589;28;19925;-87
2022/04/22 05:52:10;;;;;;;;;;;8.90;99.90;;;;;;5029010;28;20022;-83
2022/04/22 05:54:36;;;;;;;;;;;9.00;99.90;;;;;;5030067;28;19928;-85
2022/04/22 05:57:03;;;;;;;;;;;9.30;99.90;;;;;;5032233;28;19932;-82
2022/04/22 05:59:29;;;;;;;;;;;9.30;99.90;;;;;;5026558;28;20339;-83
2022/04/22 06:01:56;;;;;;;;;;;9.30;99.90;;;;;;5031862;28;19929;-81
2022/04/22 06:04:22;;;;;;;;;;;9.60;99.90;;;;;;5027216;28;19931;-82
2022/04/22 06:06:49;;;;;;;;;;;9.70;99.90;;;;;;5023298;28;19925;-82
2022/04/22 06:12:00;;;;;;;;;;;9.80;99.90;;;;;;5031168;28;20380;-82
2022/04/22 06:14:26;;;;;;;;;;;10.10;99.90;;;;;;5023669;28;19925;-82
2022/04/22 06:16:53;;;;;;;;;;;10.00;99.90;;;;;;5030749;28;19941;-82
2022/04/22 06:19:19;;;;;;;;;;;10.30;99.90;;;;;;5035031;28;20384;-87
2022/04/22 06:21:46;;;;;;;;;;;10.40;99.90;;;;;;5041042;28;19932;-82
2022/04/22 06:24:12;;;;;;;;;;;10.40;99.90;;;;;;5029440;28;19932;-83
2022/04/22 06:26:39;;;;;;;;;;;10.70;99.90;;;;;;5027167;28;19925;-83
2022/04/22 06:29:06;;;;;;;;;;;10.80;99.90;;;;;;5029542;28;19924;-83
2022/04/22 06:31:32;;;;;;;;;;;10.90;99.90;;;;;;5026789;28;19975;-83
2022/04/22 06:33:59;;;;;;;;;;;11.00;99.90;;;;;;5024438;28;20356;-83
2022/04/22 06:36:25;;;;;;;;;;;11.00;99.90;;;;;;5046561;28;20383;-83
2022/04/22 06:38:57;;;;;;;;;;;10.90;99.90;;;;;;5025887;28;19925;-83
2022/04/22 06:46:52;;;;;;;;;;;11.10;99.90;;;;;;5024644;28;19925;-82
2022/04/22 06:49:19;;;;;;;;;;;10.90;99.90;;;;;;5028035;28;19928;-88
2022/04/22 06:51:45;;;;;;;;;;;11.00;99.90;;;;;;5045396;28;19925;-83
2022/04/22 06:54:12;;;;;;;;;;;11.00;99.90;;;;;;5032182;28;19931;-83
2022/04/22 06:56:38;;;;;;;;;;;10.80;99.90;;;;;;5027249;28;19936;-82
2022/04/22 06:59:05;;;;;;;;;;;11.10;99.90;;;;;;5046765;28;19925;-82
2022/04/22 07:01:31;;;;;;;;;;;11.00;99.90;;;;;;5026509;28;19936;-83
2022/04/22 07:03:58;;;;;;;;;;;11.10;99.90;;;;;;5029918;28;19932;-83
2022/04/22 07:06:25;;;;;;;;;;;11.30;99.90;;;;;;5031029;28;19925;-83
2022/04/22 07:08:51;;;;;;;;;;;11.40;99.90;;;;;;5028244;28;19936;-83
2022/04/22 07:11:18;;;;;;;;;;;11.50;99.90;;;;;;5031508;28;19970;-86
2022/04/22 07:13:44;;;;;;;;;;;11.30;99.90;;;;;;5034504;28;19955;-83
2022/04/22 07:16:11;;;;;;;;;;;11.60;99.90;;;;;;5030156;28;19925;-82
2022/04/22 07:18:37;;;;;;;;;;;11.50;99.90;;;;;;5025633;28;19928;-85
2022/04/22 07:21:04;;;;;;;;;;;11.60;99.90;;;;;;5032034;28;19932;-83
2022/04/22 07:23:30;;;;;;;;;;;11.70;99.90;;;;;;5038260;28;20318;-83
2022/04/22 07:25:57;;;;;;;;;;;12.00;99.90;;;;;;5047635;28;20360;-83
2022/04/22 07:28:23;;;;;;;;;;;12.30;99.90;;;;;;5035098;28;19932;-83
2022/04/22 07:30:50;;;;;;;;;;;12.50;99.90;;;;;;5054347;28;19925;-83
2022/04/22 07:33:17;;;;;;;;;;;12.50;99.90;;;;;;5030166;28;19974;-83
2022/04/22 07:35:43;;;;;;;;;;;12.60;99.90;;;;;;5028589;28;20392;-83
2022/04/22 07:38:10;;;;;;;;;;;12.40;99.90;;;;;;5032316;28;20288;-83
2022/04/22 07:40:37;;;;;;;;;;;12.20;99.90;;;;;;5032987;28;19932;-83
2022/04/22 07:48:34;;;;;;;;;;;12.50;99.90;;;;;;5032559;28;19925;-83
2022/04/22 07:51:00;;;;;;;;;;;12.80;99.90;;;;;;5051395;28;20368;-86
2022/04/22 07:53:27;;;;;;;;;;;13.00;99.90;;;;;;5036295;28;19947;-83
2022/04/22 07:55:53;;;;;;;;;;;13.10;99.90;;;;;;5029442;28;19925;-83
2022/04/22 07:58:20;;;;;;;;;;;13.10;99.90;;;;;;5034039;28;20348;-87
2022/04/22 08:00:46;;;;;;;;;;;13.00;99.90;;;;;;5031417;28;19925;-81
2022/04/22 08:03:13;;;;;;;;;;;13.10;99.90;;;;;;5043879;28;19940;-83
2022/04/22 08:05:39;;;;;;;;;;;13.30;99.90;;;;;;5028720;28;19933;-84
2022/04/22 08:08:06;;;;;;;;;;;13.40;99.90;;;;;;5029216;28;20000;-83
2022/04/22 08:10:32;;;;;;;;;;;13.30;99.90;;;;;;5030403;28;19925;-83
2022/04/22 08:12:59;;;;;;;;;;;13.50;99.60;;;;;;5029589;28;20292;-82
2022/04/22 08:15:26;;;;;;;;;;;13.70;99.60;;;;;;5025012;28;20359;-89
2022/04/22 08:17:52;;;;;;;;;;;13.70;99.60;;;;;;5028923;28;20361;-84
2022/04/22 08:20:19;;;;;;;;;;;13.60;98.90;;;;;;5030263;28;19935;-84
2022/04/22 08:22:45;;;;;;;;;;;13.90;99.10;;;;;;5026546;28;19928;-83
2022/04/22 08:25:12;;;;;;;;;;;13.80;98.80;;;;;;5032393;28;19964;-83
2022/04/22 08:27:38;;;;;;;;;;;13.90;99.00;;;;;;5026267;28;19925;-83
2022/04/22 08:30:05;;;;;;;;;;;14.00;98.90;;;;;;5031374;28;20007;-86
2022/04/22 08:32:31;;;;;;;;;;;14.30;99.00;;;;;;5048010;28;19928;-84
2022/04/22 08:34:58;;;;;;;;;;;14.50;98.30;;;;;;5037512;28;19935;-84
2022/04/22 08:37:24;;;;;;;;;;;14.40;96.80;;;;;;5050966;28;19924;-84
2022/04/22 08:39:51;;;;;;;;;;;14.10;97.30;;;;;;5030383;28;19935;-83
2022/04/22 08:42:18;;;;;;;;;;;14.40;97.60;;;;;;5046151;28;19932;-84
2022/04/22 08:44:44;;;;;;;;;;;14.60;97.90;;;;;;5044932;28;19929;-84
2022/04/22 08:50:02;;;;;;;;;;;14.80;97.50;;;;;;5026389;28;20384;-84
2022/04/22 08:52:29;;;;;;;;;;;14.90;97.90;;;;;;5016266;28;20020;-88
2022/04/22 08:54:56;;;;;;;;;;;15.20;96.20;;;;;;5020717;28;20388;-89
2022/04/22 08:57:22;;;;;;;;;;;15.10;96.30;;;;;;5021350;28;19960;-86
2022/04/22 08:59:49;;;;;;;;;;;15.00;97.00;;;;;;5031695;28;20271;-85
2022/04/22 09:02:15;;;;;;;;;;;15.10;96.50;;;;;;5050742;28;19928;-84
2022/04/22 09:04:42;;;;;;;;;;;15.30;95.50;;;;;;5032211;28;19939;-86
2022/04/22 09:07:10;;;;;;;;;;;15.20;96.10;;;;;;5038934;28;19926;-84
2022/04/22 09:09:38;;;;;;;;;;;15.20;95.70;;;;;;5040836;28;19924;-84
2022/04/22 09:12:05;;;;;;;;;;;15.10;95.60;;;;;;5032791;28;20016;-85
2022/04/22 09:14:32;;;;;;;;;;;15.00;96.40;;;;;;5032737;28;19925;-86
2022/04/22 09:16:58;;;;;;;;;;;15.20;96.90;;;;;;5027112;28;19929;-85
2022/04/22 09:19:25;;;;;;;;;;;15.20;96.00;;;;;;5022419;28;19933;-85
2022/04/22 09:21:51;;;;;;;;;;;15.00;95.40;;;;;;5033426;28;20532;-85
2022/04/22 09:24:19;;;;;;;;;;;15.20;96.10;;;;;;5026742;28;20292;-85
2022/04/22 09:26:45;;;;;;;;;;;15.30;95.50;;;;;;5033654;28;19974;-84
2022/04/22 09:29:12;;;;;;;;;;;15.10;95.40;;;;;;5035608;28;19959;-84
2022/04/22 09:31:39;;;;;;;;;;;15.30;96.50;;;;;;5041875;28;20083;-84
2022/04/22 09:34:05;;;;;;;;;;;15.40;95.40;;;;;;5029557;28;19925;-85
2022/04/22 09:44:44;;;;;;;;;;;15.70;93.90;;;;;;5026006;28;19974;-84
2022/04/22 09:47:11;;;;;;;;;;;15.40;93.70;;;;;;5050365;28;20011;-83
2022/04/22 09:49:37;;;;;;;;;;;15.30;93.30;;;;;;5038565;28;20414;-85
2022/04/22 09:52:04;;;;;;;;;;;15.00;95.00;;;;;;5031554;28;19924;-84
2022/04/22 09:54:30;;;;;;;;;;;15.10;94.50;;;;;;5026634;28;19932;-87
2022/04/22 09:56:57;;;;;;;;;;;15.40;95.00;;;;;;5035496;28;19963;-84
2022/04/22 09:59:24;;;;;;;;;;;15.20;93.90;;;;;;5028617;28;20265;-85
2022/04/22 10:01:50;;;;;;;;;;;15.40;94.80;;;;;;5031298;28;19928;-81
2022/04/22 10:04:17;;;;;;;;;;;15.60;94.60;;;;;;5031876;28;19929;-83
2022/04/22 10:06:43;;;;;;;;;;;15.70;94.80;;;;;;5033305;28;19932;-83
2022/04/22 10:09:10;;;;;;;;;;;15.50;95.30;;;;;;5035342;28;19967;-83
2022/04/22 10:11:36;;;;;;;;;;;15.60;93.70;;;;;;5035436;28;20301;-83
2022/04/22 10:14:05;;;;;;;;;;;15.50;93.90;;;;;;5020774;28;19924;-81
2022/04/22 10:16:31;;;;;;;;;;;15.50;93.90;;;;;;5027101;28;19934;-85
2022/04/22 10:18:58;;;;;;;;;;;15.40;93.00;;;;;;5066741;28;19928;-83
2022/04/22 10:21:24;;;;;;;;;;;15.40;92.60;;;;;;5048518;28;19932;-81
2022/04/22 10:23:52;;;;;;;;;;;15.40;93.20;;;;;;5037055;28;19939;-82
2022/04/22 10:26:18;;;;;;;;;;;15.40;92.90;;;;;;5039040;28;19928;-84
2022/04/22 10:28:45;;;;;;;;;;;15.40;92.30;;;;;;5032738;28;19925;-84
2022/04/22 10:31:12;;;;;;;;;;;15.50;92.90;;;;;;5037333;28;20015;-85
2022/04/22 10:33:39;;;;;;;;;;;15.30;91.70;;;;;;5034996;28;19994;-84
2022/04/22 10:36:05;;;;;;;;;;;15.60;93.70;;;;;;5030646;28;20395;-85
2022/04/22 10:38:32;;;;;;;;;;;15.50;91.60;;;;;;5030721;28;19939;-86
2022/04/22 10:40:58;;;;;;;;;;;15.20;92.40;;;;;;5021877;28;21067;-85
2022/04/22 10:43:27;;;;;;;;;;;15.60;92.70;;;;;;5027499;28;20380;-85
2022/04/22 10:48:39;;;;;;;;;;;15.50;91.80;;;;;;5021108;28;19925;-86
2022/04/22 10:51:07;;;;;;;;;;;15.70;92.20;;;;;;5023564;28;19929;-86
2022/04/22 10:53:34;;;;;;;;;;;15.50;90.20;;;;;;5016567;28;20035;-86
2022/04/22 10:56:00;;;;;;;;;;;15.40;92.60;;;;;;5024880;28;19929;-85
2022/04/22 10:58:27;;;;;;;;;;;15.70;92.30;;;;;;5036599;28;20386;-85
2022/04/22 11:00:54;;;;;;;;;;;15.70;92.80;;;;;;5042351;28;19979;-86
2022/04/22 11:03:21;;;;;;;;;;;15.80;91.80;;;;;;5035116;28;19946;-85
2022/04/22 11:05:48;;;;;;;;;;;15.70;92.30;;;;;;5046445;28;20340;-85
2022/04/22 11:08:14;;;;;;;;;;;15.80;92.70;;;;;;5035753;28;19925;-86
2022/04/22 11:10:41;;;;;;;;;;;16.10;92.60;;;;;;5037670;28;19987;-87
2022/04/22 11:13:07;;;;;;;;;;;16.20;92.20;;;;;;5045702;28;19928;-84
2022/04/22 11:15:34;;;;;;;;;;;16.20;92.20;;;;;;5033705;28;19925;-86
2022/04/22 11:18:00;;;;;;;;;;;16.20;91.90;;;;;;5032331;28;19929;-77
2022/04/22 11:20:27;;;;;;;;;;;16.20;91.30;;;;;;5054988;28;20427;-90
2022/04/22 11:22:53;;;;;;;;;;;16.00;91.30;;;;;;5036878;28;19925;-89
2022/04/22 11:25:20;;;;;;;;;;;16.20;91.50;;;;;;5051013;28;19925;-89
2022/04/22 11:27:47;;;;;;;;;;;16.20;91.10;;;;;;5043130;28;19928;-89
2022/04/22 11:30:14;;;;;;;;;;;16.20;91.50;;;;;;5037029;28;19974;-88
2022/04/22 11:32:41;;;;;;;;;;;16.10;91.60;;;;;;5047109;28;19936;-88
2022/04/22 11:35:07;;;;;;;;;;;16.30;92.10;;;;;;5036281;28;20007;-89
2022/04/22 11:37:37;;;;;;;;;;;16.40;92.50;;;;;;5037694;28;19958;-89
2022/04/22 11:40:03;;;;;;;;;;;16.50;91.50;;;;;;5044518;28;20369;-90
2022/04/22 11:42:30;;;;;;;;;;;16.50;91.40;;;;;;5020250;28;19925;-89
2022/04/22 11:44:56;;;;;;;;;;;16.60;91.80;;;;;;5037332;28;19931;-89
2022/04/22 11:47:23;;;;;;;;;;;16.40;85.60;;;;;;5042406;28;19931;-90
2022/04/22 11:49:49;;;;;;;;;;;16.60;90.10;;;;;;5031311;28;20379;-89
2022/04/22 11:52:16;;;;;;;;;;;16.60;89.40;;;;;;5036336;28;19926;-81
2022/04/22 11:54:42;;;;;;;;;;;16.60;89.90;;;;;;5058491;28;20020;-91
2022/04/22 11:57:09;;;;;;;;;;;16.70;89.60;;;;;;5044234;28;19929;-90
2022/04/22 11:59:35;;;;;;;;;;;16.70;90.10;;;;;;5041667;28;19924;-91
2022/04/22 12:10:14;;;;;;;;;;;17.00;90.50;;;;;;5033681;28;20030;-85
2022/04/22 12:12:41;;;;;;;;;;;17.00;90.20;;;;;;5048268;28;19935;-89
2022/04/22 12:15:08;;;;;;;;;;;17.10;90.70;;;;;;5037558;28;19972;-88
2022/04/22 12:17:35;;;;;;;;;;;17.10;90.30;;;;;;5037205;28;20374;-86
2022/04/22 12:20:01;;;;;;;;;;;17.20;89.30;;;;;;5045274;28;19940;-85
2022/04/22 12:22:28;;;;;;;;;;;17.00;87.60;;;;;;5042179;28;19974;-79
2022/04/22 12:24:54;;;;;;;;;;;17.20;90.20;;;;;;5040683;28;19935;-88
2022/04/22 12:27:21;;;;;;;;;;;17.20;90.10;;;;;;5031704;28;19929;-90
2022/04/22 12:29:48;;;;;;;;;;;17.20;92.00;;;;;;5048017;28;19951;-90
2022/04/22 12:32:14;;;;;;;;;;;17.30;89.40;;;;;;5052564;28;19936;-89
2022/04/22 12:34:41;;;;;;;;;;;17.30;89.80;;;;;;5037580;28;19931;-89
2022/04/22 12:37:08;;;;;;;;;;;17.50;90.40;;;;;;5050926;28;19924;-89
2022/04/22 12:39:34;;;;;;;;;;;17.60;90.20;;;;;;5048120;28;19925;-90
2022/04/22 12:42:01;;;;;;;;;;;17.50;90.40;;;;;;5048508;28;20038;-89
2022/04/22 12:44:28;;;;;;;;;;;17.50;88.60;;;;;;5063714;28;19971;-90
2022/04/22 12:52:23;;;;;;;;;;;17.40;88.20;;;;;;5041895;28;20365;-79
2022/04/22 12:54:51;;;;;;;;;;;17.40;88.10;;;;;;5035641;28;19934;-77
2022/04/22 12:57:18;;;;;;;;;;;17.50;89.00;;;;;;5046700;28;20364;-78
2022/04/22 12:59:44;;;;;;;;;;;17.50;86.60;;;;;;5029627;28;20342;-84
2022/04/22 13:02:11;;;;;;;;;;;17.50;87.70;;;;;;5046919;28;20391;-78
2022/04/22 13:04:38;;;;;;;;;;;17.50;88.10;;;;;;5037095;28;19970;-78
2022/04/22 13:07:04;;;;;;;;;;;17.60;86.90;;;;;;5035771;28;19925;-79
2022/04/22 13:09:32;;;;;;;;;;;17.70;87.80;;;;;;5054834;28;20368;-78
2022/04/22 13:11:59;;;;;;;;;;;17.70;86.80;;;;;;5037571;28;19978;-78
2022/04/22 13:14:26;;;;;;;;;;;17.70;86.00;;;;;;5056951;28;19924;-79
2022/04/22 13:16:52;;;;;;;;;;;17.60;86.40;;;;;;5045601;28;19964;-79
2022/04/22 13:19:19;;;;;;;;;;;17.70;86.50;;;;;;5047682;28;19928;-78
2022/04/22 13:21:45;;;;;;;;;;;17.70;87.60;;;;;;5029226;28;19925;-85
2022/04/22 13:24:12;;;;;;;;;;;17.40;85.60;;;;;;5057051;28;20020;-86
2022/04/22 13:26:39;;;;;;;;;;;17.20;85.80;;;;;;5045660;28;20007;-87
2022/04/22 13:29:06;;;;;;;;;;;17.20;85.40;;;;;;5063406;28;20288;-86
2022/04/22 13:31:33;;;;;;;;;;;17.30;85.90;;;;;;5049527;28;19924;-86
2022/04/22 13:34:00;;;;;;;;;;;17.40;86.50;;;;;;5054334;28;19983;-87
2022/04/22 13:36:27;;;;;;;;;;;17.50;87.70;;;;;;5044551;28;19972;-87
2022/04/22 13:38:53;;;;;;;;;;;17.60;85.40;;;;;;5050803;28;20058;-87
2022/04/22 13:41:20;;;;;;;;;;;17.60;86.30;;;;;;5050331;28;19925;-87
2022/04/22 13:43:47;;;;;;;;;;;17.50;85.70;;;;;;5032679;28;19924;-86
2022/04/22 13:54:26;;;;;;;;;;;17.50;86.90;;;;;;5043991;28;19931;-87
2022/04/22 13:56:52;;;;;;;;;;;17.50;85.80;;;;;;5031282;28;19928;-87
2022/04/22 13:59:19;;;;;;;;;;;17.40;86.20;;;;;;5047030;28;19924;-87
2022/04/22 14:01:45;;;;;;;;;;;17.30;86.60;;;;;;5047331;28;19925;-79
2022/04/22 14:04:12;;;;;;;;;;;17.50;87.70;;;;;;5036751;28;19929;-79
2022/04/22 14:06:38;;;;;;;;;;;17.60;89.50;;;;;;5042826;28;20344;-82
2022/04/22 14:09:05;;;;;;;;;;;17.60;86.70;;;;;;5053636;28;19932;-83
2022/04/22 14:11:32;;;;;;;;;;;17.60;84.30;;;;;;5053654;28;19983;-81
2022/04/22 14:13:58;;;;;;;;;;;17.60;84.70;;;;;;5031573;28;20384;-81
2022/04/22 14:16:25;;;;;;;;;;;17.50;85.00;;;;;;5039064;28;19986;-81
2022/04/22 14:18:51;;;;;;;;;;;17.30;84.70;;;;;;5044426;28;19986;-87
2022/04/22 14:21:18;;;;;;;;;;;17.20;83.60;;;;;;5042006;28;19929;-82
2022/04/22 14:23:44;;;;;;;;;;;17.30;84.80;;;;;;5046626;28;20521;-85
2022/04/22 14:26:12;;;;;;;;;;;17.40;81.40;;;;;;5031982;28;20080;-81
2022/04/22 14:28:38;;;;;;;;;;;17.60;83.70;;;;;;5037367;28;19929;-82
2022/04/22 14:31:05;;;;;;;;;;;17.80;80.90;;;;;;5015690;28;19936;-81
2022/04/22 14:33:32;;;;;;;;;;;17.90;81.70;;;;;;5045788;28;20388;-82
2022/04/22 14:35:58;;;;;;;;;;;17.90;84.90;;;;;;5036380;28;20020;-82
2022/04/22 14:38:25;;;;;;;;;;;17.90;84.60;;;;;;5050737;28;20295;-83
2022/04/22 14:40:52;;;;;;;;;;;17.90;79.60;;;;;;5047631;28;20320;-88
2022/04/22 14:43:19;;;;;;;;;;;17.90;79.30;;;;;;5052943;28;19928;-83
2022/04/22 14:45:45;;;;;;;;;;;17.90;79.90;;;;;;5026796;28;19936;-81
2022/04/22 14:48:12;;;;;;;;;;;17.60;80.90;;;;;;5040062;28;20210;-81
2022/04/22 14:50:40;;;;;;;;;;;17.50;81.00;;;;;;5028446;28;19934;-82
2022/04/22 14:53:07;;;;;;;;;;;17.40;80.70;;;;;;5037396;28;19968;-82
2022/04/22 14:55:33;;;;;;;;;;;17.40;82.30;;;;;;5021298;28;19935;-82
2022/04/22 14:58:00;;;;;;;;;;;17.50;82.10;;;;;;5033408;28;19935;-81
2022/04/22 15:00:26;;;;;;;;;;;17.40;82.10;;;;;;5036420;28;19938;-82
2022/04/22 15:02:53;;;;;;;;;;;17.50;82.00;;;;;;5038227;28;19940;-87
2022/04/22 15:05:20;;;;;;;;;;;17.50;78.80;;;;;;5052497;28;20023;-82
2022/04/22 15:07:47;;;;;;;;;;;17.60;82.60;;;;;;5035781;28;19936;-82
2022/04/22 15:10:14;;;;;;;;;;;17.50;78.80;;;;;;5065923;28;20019;-81
2022/04/22 15:12:41;;;;;;;;;;;17.60;81.60;;;;;;5046717;28;20283;-82
2022/04/22 15:15:08;;;;;;;;;;;17.60;82.70;;;;;;5036319;28;19925;-81
2022/04/22 15:25:47;;;;;;;;;;;17.70;82.00;;;;;;5030796;28;19932;-87
2022/04/22 15:28:14;;;;;;;;;;;17.80;83.00;;;;;;5064753;28;19928;-87
2022/04/22 15:30:40;;;;;;;;;;;17.70;81.50;;;;;;5025970;28;20031;-87
2022/04/22 15:33:07;;;;;;;;;;;17.60;81.50;;;;;;5014624;28;19983;-86
2022/04/22 15:35:33;;;;;;;;;;;17.60;82.00;;;;;;5031001;28;19932;-87
2022/04/22 15:38:00;;;;;;;;;;;17.70;83.80;;;;;;5022896;28;19925;-85
2022/04/22 15:40:26;;;;;;;;;;;17.70;82.40;;;;;;5028297;28;19928;-86
2022/04/22 15:42:53;;;;;;;;;;;17.70;85.10;;;;;;5043111;28;19939;-85